createdAt,value
2023-03-29T00:03:52.059Z,0.21
2023-03-29T00:08:55.164Z,0.16
2023-03-29T00:13:58.141Z,0.12
2023-03-29T00:19:01.600Z,0.07
2023-03-29T00:24:04.773Z,0.04
2023-03-29T00:29:07.723Z,0.02
2023-03-29T00:34:10.787Z,-0.01
2023-03-29T00:39:13.703Z,-0.04
2023-03-29T00:45:06.227Z,-0.09
2023-03-29T00:50:39.472Z,-0.13
2023-03-29T00:56:04.593Z,-0.16
2023-03-29T01:01:15.698Z,-0.19
2023-03-29T01:06:21.790Z,-0.20
2023-03-29T01:11:34.576Z,-0.21
2023-03-29T01:16:38.591Z,-0.25
2023-03-29T01:21:52.032Z,-0.26
2023-03-29T01:27:09.784Z,-0.25
2023-03-29T01:32:47.998Z,-0.25
2023-03-29T01:38:34.441Z,-0.23
2023-03-29T01:43:50.754Z,-0.26
2023-03-29T01:49:03.682Z,-0.27
2023-03-29T01:54:11.975Z,-0.29
2023-03-29T01:59:22.782Z,-0.30
2023-03-29T02:04:35.301Z,-0.31
2023-03-29T02:09:38.944Z,-0.31
2023-03-29T02:14:41.877Z,-0.30
2023-03-29T02:19:51.158Z,-0.31
2023-03-29T02:24:59.499Z,-0.37
2023-03-29T02:30:02.517Z,-0.40
2023-03-29T02:35:13.926Z,-0.43
2023-03-29T02:40:18.145Z,-0.44
2023-03-29T02:45:23.064Z,-0.45
2023-03-29T02:50:32.300Z,-0.49
2023-03-29T02:55:36.211Z,-0.51
2023-03-29T03:00:45.885Z,-0.50
2023-03-29T03:05:49.299Z,-0.51
2023-03-29T03:10:52.603Z,-0.54
2023-03-29T03:15:56.279Z,-0.55
2023-03-29T03:21:02.453Z,-0.57
2023-03-29T03:26:05.575Z,-0.56
2023-03-29T03:31:08.508Z,-0.56
2023-03-29T03:36:11.608Z,-0.55
2023-03-29T03:41:14.581Z,-0.56
2023-03-29T03:46:17.956Z,-0.59
2023-03-29T03:51:21.008Z,-0.62
2023-03-29T03:56:23.916Z,-0.63
2023-03-29T04:01:27.463Z,-0.65
2023-03-29T04:06:30.737Z,-0.68
2023-03-29T04:11:33.756Z,-0.70
2023-03-29T04:16:37.043Z,-0.66
2023-03-29T04:21:40.037Z,-0.64
2023-03-29T04:26:43.894Z,-0.63
2023-03-29T04:31:46.874Z,-0.64
2023-03-29T04:36:50.380Z,-0.64
2023-03-29T04:41:53.279Z,-0.65
2023-03-29T04:46:56.203Z,-0.53
2023-03-29T04:52:00.928Z,-0.40
2023-03-29T04:57:08.555Z,-0.23
2023-03-29T05:02:11.646Z,0.04
2023-03-29T05:07:15.731Z,0.43
2023-03-29T05:12:18.588Z,1.34
2023-03-29T05:17:22.149Z,2.41
2023-03-29T05:22:25.112Z,3.21
2023-03-29T05:27:28.365Z,3.38
2023-03-29T05:32:31.397Z,4.17
2023-03-29T05:37:34.833Z,4.95
2023-03-29T05:42:39.083Z,5.03
2023-03-29T05:47:42.066Z,4.57
2023-03-29T05:52:45.028Z,3.85
2023-03-29T05:57:47.983Z,3.31
2023-03-29T06:02:59.269Z,2.89
2023-03-29T06:08:10.045Z,2.55
2023-03-29T06:13:13.106Z,2.37
2023-03-29T06:18:16.415Z,2.26
2023-03-29T06:23:23.282Z,2.18
2023-03-29T06:28:26.431Z,2.09
2023-03-29T06:33:30.720Z,2.05
2023-03-29T06:38:34.139Z,2.04
2023-03-29T06:43:37.789Z,2.03
2023-03-29T06:48:41.533Z,2.09
2023-03-29T06:53:44.467Z,2.19
2023-03-29T06:58:47.449Z,2.26
2023-03-29T07:03:50.520Z,2.30
2023-03-29T07:08:53.693Z,2.32
2023-03-29T07:13:56.609Z,2.37
2023-03-29T07:18:59.652Z,2.40
2023-03-29T07:24:04.677Z,2.40
2023-03-29T07:29:07.812Z,2.40
2023-03-29T07:34:13.939Z,2.43
2023-03-29T07:39:16.890Z,2.45
2023-03-29T07:44:21.654Z,2.49
2023-03-29T07:49:24.840Z,2.47
2023-03-29T07:54:27.842Z,2.49
2023-03-29T07:59:30.999Z,2.53
2023-03-29T08:04:34.153Z,2.58
2023-03-29T08:09:37.539Z,2.66
2023-03-29T08:14:40.682Z,2.74
2023-03-29T08:19:51.026Z,2.76
2023-03-29T08:24:55.381Z,2.82
2023-03-29T08:29:58.181Z,2.87
2023-03-29T08:35:03.903Z,2.90
2023-03-29T08:40:07.798Z,2.98
2023-03-29T08:45:35.521Z,3.08
2023-03-29T08:50:48.140Z,3.09
2023-03-29T08:55:53.587Z,3.12
2023-03-29T09:01:03.629Z,3.21
2023-03-29T09:06:10.902Z,3.33
2023-03-29T09:11:28.593Z,3.42
2023-03-29T09:17:30.694Z,3.50
2023-03-29T09:23:15.084Z,3.60
2023-03-29T09:28:38.284Z,3.64
2023-03-29T09:33:52.380Z,3.68
2023-03-29T09:38:55.876Z,3.71
2023-03-29T09:44:03.473Z,3.77
2023-03-29T09:49:12.496Z,3.85
2023-03-29T09:54:15.808Z,3.92
2023-03-29T09:59:19.052Z,3.98
2023-03-29T10:04:22.671Z,4.01
2023-03-29T10:09:29.278Z,4.11
2023-03-29T10:14:45.048Z,4.22
2023-03-29T10:20:04.235Z,4.31
2023-03-29T10:25:17.166Z,4.38
2023-03-29T10:30:26.101Z,4.46
2023-03-29T10:35:41.982Z,4.57
2023-03-29T10:40:51.870Z,4.64
2023-03-29T10:46:05.210Z,4.69
2023-03-29T10:51:08.188Z,4.70
2023-03-29T10:56:40.335Z,4.72
2023-03-29T11:02:07.999Z,4.80
2023-03-29T11:07:34.693Z,4.86
2023-03-29T11:13:00.445Z,4.92
2023-03-29T11:18:31.691Z,4.93
2023-03-29T11:24:30.016Z,5.02
2023-03-29T11:30:00.945Z,5.15
2023-03-29T11:35:25.490Z,5.19
2023-03-29T11:40:57.443Z,5.22
2023-03-29T11:46:10.073Z,5.28
2023-03-29T11:51:29.341Z,5.33
2023-03-29T11:56:43.981Z,5.43
2023-03-29T12:01:55.999Z,5.54
2023-03-29T12:07:32.328Z,5.67
2023-03-29T12:13:12.143Z,5.76
2023-03-29T12:18:30.416Z,5.87
2023-03-29T12:23:33.956Z,5.98
2023-03-29T12:29:05.395Z,6.04
2023-03-29T12:34:42.584Z,6.12
2023-03-29T12:39:45.762Z,6.20
2023-03-29T12:44:59.251Z,6.20
2023-03-29T12:50:03.477Z,6.28
2023-03-29T12:55:49.192Z,6.39
2023-03-29T13:01:23.398Z,6.47
2023-03-29T13:06:34.075Z,6.49
2023-03-29T13:11:42.760Z,6.53
2023-03-29T13:16:46.700Z,6.54
2023-03-29T13:22:17.100Z,6.58
2023-03-29T13:27:39.759Z,6.67
2023-03-29T13:33:13.471Z,6.73
2023-03-29T13:38:22.262Z,6.83
2023-03-29T13:43:41.323Z,6.91
2023-03-29T13:48:53.815Z,6.96
2023-03-29T13:54:23.451Z,6.99
2023-03-29T14:00:11.910Z,7.03
2023-03-29T14:05:20.811Z,7.05
2023-03-29T14:10:35.029Z,7.08
2023-03-29T14:15:48.668Z,7.13
2023-03-29T14:20:56.246Z,7.19
2023-03-29T14:26:34.589Z,7.25
2023-03-29T14:31:40.736Z,7.28
2023-03-29T14:36:49.380Z,7.30
2023-03-29T14:41:57.899Z,7.29
2023-03-29T14:47:03.088Z,7.31
2023-03-29T14:52:06.665Z,7.32
2023-03-29T14:57:16.599Z,7.30
2023-03-29T15:02:32.430Z,7.27
2023-03-29T15:07:40.022Z,7.24
2023-03-29T15:12:43.356Z,7.24
2023-03-29T15:17:50.881Z,7.26
2023-03-29T15:23:00.161Z,7.29
2023-03-29T15:28:04.349Z,7.28
2023-03-29T15:33:19.384Z,7.28
2023-03-29T15:38:30.231Z,7.27
2023-03-29T15:43:39.835Z,7.27
2023-03-29T15:48:43.508Z,7.24
2023-03-29T15:53:46.498Z,7.23
2023-03-29T15:58:49.707Z,7.22
2023-03-29T16:03:52.686Z,7.24
2023-03-29T16:08:57.355Z,7.21
2023-03-29T16:14:01.014Z,7.20
2023-03-29T16:19:04.048Z,7.17
2023-03-29T16:24:12.091Z,7.13
2023-03-29T16:29:17.429Z,7.08
2023-03-29T16:34:22.821Z,7.02
2023-03-29T16:39:25.826Z,6.95
2023-03-29T16:44:29.072Z,6.86
2023-03-29T16:49:32.062Z,6.76
2023-03-29T16:54:34.952Z,6.64
2023-03-29T16:59:38.116Z,6.52
2023-03-29T17:04:41.125Z,6.40
2023-03-29T17:09:45.995Z,6.26
2023-03-29T17:14:49.248Z,6.13
2023-03-29T17:19:52.391Z,5.99
2023-03-29T17:24:55.388Z,5.86
2023-03-29T17:29:58.362Z,5.75
2023-03-29T17:35:01.355Z,5.62
2023-03-29T17:40:13.925Z,5.50
2023-03-29T17:45:17.251Z,5.38
2023-03-29T17:50:21.201Z,5.27
2023-03-29T17:55:24.277Z,5.17
2023-03-29T18:00:27.704Z,5.08
2023-03-29T18:05:30.714Z,5.00
2023-03-29T18:10:33.740Z,4.92
2023-03-29T18:15:36.976Z,4.87
2023-03-29T18:20:39.951Z,4.78
2023-03-29T18:25:42.961Z,4.65
2023-03-29T18:30:46.072Z,4.56
2023-03-29T18:35:51.355Z,4.50
2023-03-29T18:40:54.336Z,4.48
2023-03-29T18:45:57.692Z,4.45
2023-03-29T18:51:01.214Z,4.41
2023-03-29T18:56:06.611Z,4.41
2023-03-29T19:01:10.952Z,4.41
2023-03-29T19:06:15.258Z,4.43
2023-03-29T19:11:18.204Z,4.44
2023-03-29T19:16:21.278Z,4.42
2023-03-29T19:21:24.355Z,4.42
2023-03-29T19:26:29.548Z,4.43
2023-03-29T19:31:35.142Z,4.43
2023-03-29T19:36:38.354Z,4.43
2023-03-29T19:41:41.939Z,4.41
2023-03-29T19:46:44.989Z,4.38
2023-03-29T19:51:48.212Z,4.38
2023-03-29T19:56:52.857Z,4.39
2023-03-29T20:01:57.120Z,4.39
2023-03-29T20:07:00.233Z,4.39
2023-03-29T20:12:04.003Z,4.38
2023-03-29T20:17:07.382Z,4.36
2023-03-29T20:22:11.988Z,4.33
2023-03-29T20:27:15.905Z,4.29
2023-03-29T20:32:18.713Z,4.28
2023-03-29T20:37:23.148Z,4.29
2023-03-29T20:42:28.761Z,4.29
2023-03-29T20:47:31.845Z,4.29
2023-03-29T20:52:36.060Z,4.26
2023-03-29T20:57:40.658Z,4.25
2023-03-29T21:02:44.292Z,4.23
2023-03-29T21:07:48.153Z,4.20
2023-03-29T21:12:54.324Z,4.16
2023-03-29T21:17:57.393Z,4.12
2023-03-29T21:23:01.221Z,4.11
2023-03-29T21:28:04.154Z,4.12
2023-03-29T21:33:07.108Z,4.13
2023-03-29T21:38:10.098Z,4.13
2023-03-29T21:43:13.186Z,4.10
2023-03-29T21:48:17.854Z,4.10
2023-03-29T21:53:20.952Z,4.08
2023-03-29T21:58:23.925Z,4.04
2023-03-29T22:03:26.912Z,4.00
2023-03-29T22:08:31.400Z,3.98
2023-03-29T22:13:34.490Z,3.96
2023-03-29T22:18:44.211Z,3.96
2023-03-29T22:23:49.945Z,3.95
2023-03-29T22:28:54.127Z,3.96
2023-03-29T22:33:58.627Z,3.96
2023-03-29T22:39:01.822Z,3.97
2023-03-29T22:44:05.830Z,3.96
2023-03-29T22:49:08.649Z,3.96
2023-03-29T22:54:12.120Z,3.96
2023-03-29T22:59:15.970Z,3.98
2023-03-29T23:04:18.834Z,3.97
2023-03-29T23:09:22.206Z,3.97
2023-03-29T23:14:25.172Z,3.96
2023-03-29T23:19:28.209Z,3.98
2023-03-29T23:24:31.248Z,3.97
2023-03-29T23:29:34.624Z,3.97
2023-03-29T23:34:37.681Z,3.96
2023-03-29T23:39:40.720Z,3.96
2023-03-29T23:44:43.981Z,3.96
2023-03-29T23:49:46.978Z,3.95
2023-03-29T23:54:51.330Z,3.94
2023-03-29T23:59:56.028Z,3.94
